createdAt,value
2022-11-03T00:00:15.484Z,85.51
2022-11-03T00:05:35.840Z,85.55
2022-11-03T00:10:37.722Z,85.46
2022-11-03T00:15:48.406Z,85.56
2022-11-03T00:21:02.141Z,85.55
2022-11-03T00:26:28.307Z,85.78
2022-11-03T00:31:33.465Z,85.71
2022-11-03T00:36:37.736Z,85.52
2022-11-03T00:41:40.082Z,86.20
2022-11-03T00:46:41.892Z,86.48
2022-11-03T00:51:43.631Z,86.47
2022-11-03T00:56:45.615Z,86.53
2022-11-03T01:01:48.133Z,86.33
2022-11-03T01:06:54.442Z,86.20
2022-11-03T01:12:02.827Z,86.19
2022-11-03T01:17:07.046Z,86.30
2022-11-03T01:22:10.890Z,86.41
2022-11-03T01:27:16.233Z,86.69
2022-11-03T01:32:17.972Z,86.76
2022-11-03T01:37:19.881Z,86.81
2022-11-03T01:42:21.706Z,87.11
2022-11-03T01:47:29.898Z,86.99
2022-11-03T01:52:37.699Z,86.79
2022-11-03T01:57:45.647Z,86.59
2022-11-03T02:02:48.017Z,86.37
2022-11-03T02:08:15.283Z,86.59
2022-11-03T02:13:23.022Z,87.03
2022-11-03T02:18:28.715Z,87.01
2022-11-03T02:23:42.175Z,86.99
2022-11-03T02:28:44.435Z,87.19
2022-11-03T02:34:11.665Z,87.34
2022-11-03T02:39:22.131Z,87.47
2022-11-03T02:44:26.197Z,87.46
2022-11-03T02:49:28.359Z,87.47
2022-11-03T02:54:43.214Z,87.46
2022-11-03T02:59:58.170Z,87.39
2022-11-03T03:05:03.890Z,87.31
2022-11-03T03:10:14.702Z,87.26
2022-11-03T03:15:18.599Z,87.05
2022-11-03T03:20:27.818Z,86.85
2022-11-03T03:25:56.061Z,86.67
2022-11-03T03:31:00.894Z,87.04
2022-11-03T03:36:07.991Z,87.03
2022-11-03T03:41:22.043Z,86.97
2022-11-03T03:46:29.260Z,86.85
2022-11-03T03:51:32.159Z,87.14
2022-11-03T03:56:43.748Z,87.52
2022-11-03T04:01:45.715Z,87.86
2022-11-03T04:06:47.772Z,88.18
2022-11-03T04:12:08.247Z,88.41
2022-11-03T04:17:39.377Z,88.43
2022-11-03T04:22:41.233Z,88.53
2022-11-03T04:27:44.655Z,88.57
2022-11-03T04:32:48.822Z,88.73
2022-11-03T04:38:13.818Z,88.92
2022-11-03T04:43:19.023Z,88.90
2022-11-03T04:48:25.509Z,88.82
2022-11-03T04:53:31.557Z,88.81
2022-11-03T04:58:35.753Z,88.94
2022-11-03T05:03:39.026Z,89.25
2022-11-03T05:08:42.832Z,89.42
2022-11-03T05:13:44.704Z,89.44
2022-11-03T05:18:50.100Z,89.40
2022-11-03T05:23:56.285Z,89.34
2022-11-03T05:29:04.466Z,89.16
2022-11-03T05:34:26.939Z,89.00
2022-11-03T05:39:36.707Z,89.07
2022-11-03T05:44:39.885Z,89.13
2022-11-03T05:49:41.773Z,89.21
2022-11-03T05:54:43.651Z,89.23
2022-11-03T05:59:48.409Z,89.30
2022-11-03T06:04:50.273Z,89.45
2022-11-03T06:09:53.700Z,89.68
2022-11-03T06:14:55.563Z,89.83
2022-11-03T06:20:00.297Z,90.06
2022-11-03T06:25:27.269Z,90.38
2022-11-03T06:30:34.642Z,90.69
2022-11-03T06:35:36.560Z,90.97
2022-11-03T06:40:39.150Z,91.23
2022-11-03T06:45:50.029Z,91.50
2022-11-03T06:50:52.837Z,91.71
2022-11-03T06:55:55.326Z,91.82
2022-11-03T07:01:03.764Z,91.88
2022-11-03T07:06:18.441Z,91.94
2022-11-03T07:11:26.151Z,92.03
2022-11-03T07:16:37.590Z,92.08
2022-11-03T07:21:56.153Z,92.01
2022-11-03T07:27:01.177Z,92.00
2022-11-03T07:32:13.289Z,92.01
2022-11-03T07:37:22.945Z,91.92
2022-11-03T07:42:27.393Z,91.76
2022-11-03T07:47:34.647Z,91.63
2022-11-03T07:52:36.570Z,91.53
2022-11-03T07:57:39.574Z,91.38
2022-11-03T08:03:01.030Z,91.18
2022-11-03T08:08:02.761Z,90.99
2022-11-03T08:13:04.815Z,90.87
2022-11-03T08:18:06.816Z,90.80
2022-11-03T08:28:30.878Z,90.44
2022-11-03T08:33:34.846Z,90.08
2022-11-03T08:38:37.494Z,89.49
2022-11-03T08:43:39.373Z,88.72
2022-11-03T08:48:41.604Z,87.75
2022-11-03T08:53:43.617Z,86.93
2022-11-03T08:58:45.501Z,85.94
2022-11-03T09:03:47.334Z,84.50
2022-11-03T09:14:11.133Z,83.03
2022-11-03T09:19:12.901Z,82.01
2022-11-03T09:24:14.759Z,80.92
2022-11-03T09:29:16.577Z,79.59
2022-11-03T09:34:18.367Z,78.14
2022-11-03T09:39:20.153Z,77.22
2022-11-03T09:44:21.959Z,76.56
2022-11-03T09:49:23.811Z,75.41
2022-11-03T09:54:28.211Z,73.55
2022-11-03T09:59:30.440Z,72.02
2022-11-03T10:04:32.462Z,70.72
2022-11-03T10:09:34.637Z,68.86
2022-11-03T10:14:36.483Z,68.15
2022-11-03T10:19:38.312Z,67.12
2022-11-03T10:24:40.200Z,66.44
2022-11-03T10:29:43.777Z,64.60
2022-11-03T10:34:49.199Z,63.99
2022-11-03T10:39:53.128Z,63.42
2022-11-03T10:45:10.359Z,61.97
2022-11-03T10:50:22.507Z,60.16
2022-11-03T10:55:26.260Z,58.90
2022-11-03T11:00:28.186Z,58.21
2022-11-03T11:05:30.073Z,57.69
2022-11-03T11:10:32.115Z,56.74
2022-11-03T11:15:44.399Z,55.84
2022-11-03T11:20:46.280Z,55.58
2022-11-03T11:26:09.904Z,54.93
2022-11-03T11:31:27.117Z,54.93
2022-11-03T11:36:29.060Z,54.72
2022-11-03T11:42:08.637Z,53.79
2022-11-03T11:47:24.555Z,53.95
2022-11-03T11:52:27.866Z,54.05
2022-11-03T11:57:33.941Z,53.90
2022-11-03T12:02:36.329Z,53.57
2022-11-03T12:07:38.071Z,53.24
2022-11-03T12:12:39.983Z,53.62
2022-11-03T12:17:41.756Z,53.08
2022-11-03T12:22:43.759Z,53.19
2022-11-03T12:27:45.854Z,52.97
2022-11-03T12:32:48.207Z,52.51
2022-11-03T12:37:50.085Z,52.28
2022-11-03T12:42:51.962Z,52.12
2022-11-03T12:47:53.843Z,51.99
2022-11-03T12:52:55.719Z,52.30
2022-11-03T12:57:57.506Z,51.82
2022-11-03T13:02:59.304Z,51.46
2022-11-03T13:08:01.143Z,51.45
2022-11-03T13:13:02.868Z,51.61
2022-11-03T13:18:15.294Z,51.86
2022-11-03T13:23:20.276Z,52.07
2022-11-03T13:28:25.036Z,52.34
2022-11-03T13:33:26.811Z,52.84
2022-11-03T13:38:28.696Z,53.48
2022-11-03T13:43:30.574Z,54.08
2022-11-03T14:09:42.578Z,56.34
2022-11-03T14:14:44.504Z,56.65
2022-11-03T14:19:52.034Z,56.97
2022-11-03T14:24:54.702Z,57.36
2022-11-03T14:29:56.472Z,57.44
2022-11-03T14:34:58.454Z,57.44
2022-11-03T14:40:00.456Z,57.62
2022-11-03T14:45:02.289Z,57.80
2022-11-03T14:50:04.806Z,58.01
2022-11-03T14:55:07.304Z,58.34
2022-11-03T15:00:11.394Z,58.57
2022-11-03T15:05:33.118Z,58.91
2022-11-03T15:10:34.946Z,59.21
2022-11-03T15:15:37.339Z,59.68
2022-11-03T15:20:39.201Z,60.15
2022-11-03T15:25:41.201Z,60.72
2022-11-03T15:30:42.996Z,61.08
2022-11-03T15:35:45.097Z,61.40
2022-11-03T15:40:47.133Z,61.69
2022-11-03T15:45:49.013Z,61.91
2022-11-03T15:50:50.890Z,62.16
2022-11-03T15:55:52.669Z,62.66
2022-11-03T16:00:54.758Z,62.92
2022-11-03T16:05:56.674Z,63.29
2022-11-03T16:10:58.609Z,63.67
2022-11-03T16:16:00.584Z,63.96
2022-11-03T16:21:02.377Z,64.18
2022-11-03T16:26:05.775Z,64.85
2022-11-03T16:31:07.650Z,65.58
2022-11-03T16:36:09.528Z,66.12
2022-11-03T16:41:11.811Z,66.70
2022-11-03T16:46:13.738Z,67.10
2022-11-03T16:51:15.570Z,67.30
2022-11-03T16:56:17.340Z,67.71
2022-11-03T17:01:19.398Z,67.98
2022-11-03T17:06:22.221Z,68.03
2022-11-03T17:11:36.452Z,68.28
2022-11-03T17:16:38.700Z,68.44
2022-11-03T17:21:40.761Z,68.53
2022-11-03T17:26:51.478Z,68.43
2022-11-03T17:31:54.234Z,68.01
2022-11-03T17:36:56.836Z,67.86
2022-11-03T17:42:18.786Z,67.53
2022-11-03T17:47:21.291Z,67.17
2022-11-03T17:52:28.677Z,67.15
2022-11-03T17:57:31.009Z,66.73
2022-11-03T18:02:35.673Z,66.45
2022-11-03T18:07:38.613Z,66.27
2022-11-03T18:13:03.532Z,66.10
2022-11-03T18:18:29.386Z,66.07
2022-11-03T18:23:33.889Z,66.03
2022-11-03T18:28:35.682Z,65.95
2022-11-03T18:33:37.505Z,65.76
2022-11-03T18:38:41.441Z,65.64
2022-11-03T18:43:43.260Z,65.44
2022-11-03T18:48:45.141Z,65.46
2022-11-03T18:53:47.016Z,65.50
2022-11-03T18:58:52.686Z,65.68
2022-11-03T19:03:56.507Z,65.96
2022-11-03T19:08:59.858Z,65.93
2022-11-03T19:14:01.807Z,65.95
2022-11-03T19:19:03.878Z,65.98
2022-11-03T19:24:05.958Z,66.29
2022-11-03T19:29:13.311Z,66.24
2022-11-03T19:34:19.637Z,66.38
2022-11-03T19:39:32.235Z,66.58
2022-11-03T19:49:36.952Z,66.75
2022-11-03T19:54:40.676Z,66.83
2022-11-03T19:59:43.666Z,67.14
2022-11-03T20:04:47.501Z,67.30
2022-11-03T20:09:49.376Z,67.15
2022-11-03T20:14:51.255Z,67.36
2022-11-03T20:19:53.435Z,67.64
2022-11-03T20:25:03.316Z,68.03
2022-11-03T20:30:05.998Z,68.22
2022-11-03T20:35:13.654Z,68.52
2022-11-03T20:40:19.521Z,68.78
2022-11-03T20:45:23.086Z,69.00
2022-11-03T20:50:25.610Z,69.06
2022-11-03T20:55:27.760Z,69.20
2022-11-03T21:00:31.757Z,69.26
2022-11-03T21:05:33.684Z,69.35
2022-11-03T21:10:35.867Z,69.26
2022-11-03T21:16:22.987Z,69.36
2022-11-03T21:21:21.484Z,69.15
2022-11-03T21:26:23.383Z,69.31
2022-11-03T21:31:25.259Z,69.49
2022-11-03T21:36:27.141Z,69.57
2022-11-03T21:41:47.583Z,69.67
2022-11-03T21:46:49.420Z,69.82
2022-11-03T21:51:51.301Z,69.89
2022-11-03T21:56:53.129Z,70.02
2022-11-03T22:01:55.426Z,70.16
2022-11-03T22:06:58.954Z,70.41
2022-11-03T22:12:05.781Z,70.55
2022-11-03T22:17:07.570Z,70.43
2022-11-03T22:22:43.627Z,70.56
2022-11-03T22:27:45.817Z,70.63
2022-11-03T22:32:53.461Z,70.78
2022-11-03T22:38:46.605Z,70.84
2022-11-03T22:44:06.936Z,71.00
2022-11-03T22:49:08.721Z,71.22
2022-11-03T22:54:10.465Z,71.36
2022-11-03T22:59:13.061Z,71.63
2022-11-03T23:04:14.940Z,71.96
2022-11-03T23:09:16.693Z,72.16
2022-11-03T23:14:18.689Z,72.34
2022-11-03T23:19:39.512Z,72.73
2022-11-03T23:25:00.272Z,72.95
2022-11-03T23:30:02.210Z,73.29
2022-11-03T23:35:04.815Z,73.60
2022-11-03T23:40:07.711Z,73.70
2022-11-03T23:45:28.837Z,73.76
2022-11-03T23:50:30.555Z,73.92
2022-11-03T23:55:53.889Z,73.98
